Time;durP1;ratioP1;P1;durP2;ratioP2;P2;SDS_P1;SDS_P2;PMS_P1;PMS_P2;Temp;Humidity;BMP_temperature;BMP_pressure;BME280_temperature;BME280_humidity;BME280_pressure;Samples;Min_cycle;Max_cycle;Signal;HPM_P1;HPM_P2
2023/06/03 00:04:51;;;;;;;;;;;;;;;22.46;38.69;95585.72;10307869;28;1893;-63
2023/06/03 00:09:51;;;;;;;;;;;;;;;22.45;38.76;95586.75;10304959;28;1905;-62
2023/06/03 00:14:51;;;;;;;;;;;;;;;22.44;38.67;95593.91;10311222;28;1928;-62
2023/06/03 00:19:51;;;;;;;;;;;;;;;22.43;38.48;95592.34;10308598;28;2427;-62
2023/06/03 00:24:52;;;;;;;;;;;;;;;22.42;38.56;95600.56;10304281;28;1861;-62
2023/06/03 00:29:52;;;;;;;;;;;;;;;22.38;38.67;95599.56;10307183;28;4347;-62
2023/06/03 00:34:53;;;;;;;;;;;;;;;22.36;38.64;95594.56;10305457;28;1981;-62
2023/06/03 00:39:53;;;;;;;;;;;;;;;22.36;38.44;95591.16;10308388;28;1838;-62
2023/06/03 00:44:53;;;;;;;;;;;;;;;22.35;38.54;95602.78;10306426;28;1823;-62
2023/06/03 00:49:53;;;;;;;;;;;;;;;22.31;38.66;95593.88;10295971;28;2028;-62
2023/06/03 00:54:54;;;;;;;;;;;;;;;22.31;38.54;95599.94;10310688;28;1978;-63
2023/06/03 00:59:54;;;;;;;;;;;;;;;22.30;38.38;95598.34;10308022;28;2049;-62
2023/06/03 01:04:57;;;;;;;;;;;;;;;22.28;38.65;95595.22;10302160;28;2135;-63
2023/06/03 01:10:06;;;;;;;;;;;;;;;22.28;38.63;95595.22;10293045;28;1944;-62
2023/06/03 01:15:08;;;;;;;;;;;;;;;22.28;38.38;95589.13;10301274;28;2412;-63
2023/06/03 01:20:10;;;;;;;;;;;;;;;22.28;38.39;95583.84;10304372;28;1975;-62
2023/06/03 01:25:11;;;;;;;;;;;;;;;22.28;38.58;95594.41;10301988;28;2000;-61
2023/06/03 01:30:12;;;;;;;;;;;;;;;22.27;38.26;95585.75;10299445;28;4248;-63
2023/06/03 01:35:12;;;;;;;;;;;;;;;22.25;38.23;95579.97;10292246;28;2068;-63
2023/06/03 01:40:13;;;;;;;;;;;;;;;22.22;38.21;95577.88;10289130;28;1964;-62
2023/06/03 01:45:13;;;;;;;;;;;;;;;22.20;38.06;95576.59;10304030;28;1916;-63
2023/06/03 01:50:16;;;;;;;;;;;;;;;22.16;38.10;95567.69;10303133;28;1980;-62
2023/06/03 01:55:17;;;;;;;;;;;;;;;22.15;38.03;95574.84;10302667;28;2359;-62
2023/06/03 02:00:17;;;;;;;;;;;;;;;22.14;38.05;95580.38;10302341;28;2000;-63
2023/06/03 02:05:17;;;;;;;;;;;;;;;22.10;37.99;95577.53;10302275;28;1936;-63
2023/06/03 02:10:18;;;;;;;;;;;;;;;22.08;38.10;95581.53;10302256;28;2100;-63
2023/06/03 02:15:18;;;;;;;;;;;;;;;22.05;37.77;95577.59;10299489;28;2265;-63
2023/06/03 02:20:18;;;;;;;;;;;;;;;22.03;37.90;95571.06;10305030;28;1996;-63
2023/06/03 02:25:20;;;;;;;;;;;;;;;22.01;37.96;95584.53;10304439;28;1975;-63
2023/06/03 02:30:21;;;;;;;;;;;;;;;22.00;37.66;95582.19;10301061;28;4282;-63
2023/06/03 02:35:22;;;;;;;;;;;;;;;21.98;37.85;95579.84;10304490;28;2171;-63
2023/06/03 02:40:22;;;;;;;;;;;;;;;21.98;37.71;95573.78;10303344;28;1940;-63
2023/06/03 02:45:22;;;;;;;;;;;;;;;21.96;37.83;95570.63;10303582;28;1939;-63
2023/06/03 02:50:22;;;;;;;;;;;;;;;21.95;37.74;95575.13;10302108;28;2024;-63
2023/06/03 02:55:23;;;;;;;;;;;;;;;21.95;37.74;95579.63;10303307;28;1986;-63
2023/06/03 03:00:23;;;;;;;;;;;;;;;21.91;37.45;95583.91;10311673;28;2086;-63
2023/06/03 03:05:24;;;;;;;;;;;;;;;21.88;37.62;95580.00;10310063;28;2173;-63
2023/06/03 03:10:24;;;;;;;;;;;;;;;21.86;37.75;95582.88;10314343;28;2352;-63
2023/06/03 03:15:25;;;;;;;;;;;;;;;21.85;37.54;95583.19;10309937;28;2118;-63
2023/06/03 03:20:25;;;;;;;;;;;;;;;21.85;37.30;95585.81;10310280;28;1949;-63
2023/06/03 03:25:26;;;;;;;;;;;;;;;21.82;37.28;95589.03;10310687;28;2075;-64
2023/06/03 03:30:26;;;;;;;;;;;;;;;21.81;37.39;95598.81;10308222;28;4382;-63
2023/06/03 03:35:27;;;;;;;;;;;;;;;21.80;37.36;95599.84;10310910;28;1987;-63
2023/06/03 03:40:27;;;;;;;;;;;;;;;21.79;37.23;95594.84;10313805;28;2077;-63
2023/06/03 03:45:32;;;;;;;;;;;;;;;21.79;37.30;95610.69;10310036;28;1916;-63
2023/06/03 03:50:48;;;;;;;;;;;;;;;21.77;37.43;95610.19;10308513;28;1983;-63
2023/06/03 03:55:49;;;;;;;;;;;;;;;21.77;37.35;95613.59;10306837;28;1996;-63
2023/06/03 04:00:50;;;;;;;;;;;;;;;21.76;37.29;95611.25;10307196;28;1932;-63
2023/06/03 04:05:50;;;;;;;;;;;;;;;21.75;37.40;95617.59;10301575;28;2411;-63
2023/06/03 04:10:50;;;;;;;;;;;;;;;21.75;37.43;95617.59;10308844;28;2205;-63
2023/06/03 04:15:51;;;;;;;;;;;;;;;21.76;37.41;95622.56;10305315;28;2063;-63
2023/06/03 04:20:51;;;;;;;;;;;;;;;21.78;37.20;95622.31;10303918;28;2024;-62
2023/06/03 04:25:53;;;;;;;;;;;;;;;21.78;37.31;95633.63;10295864;28;2003;-62
2023/06/03 04:30:53;;;;;;;;;;;;;;;21.79;37.69;95634.44;10308790;28;4410;-63
2023/06/03 04:35:54;;;;;;;;;;;;;;;21.79;37.58;95634.44;10307300;28;1960;-63
2023/06/03 04:40:54;;;;;;;;;;;;;;;21.81;37.73;95640.19;10310066;28;1971;-63
2023/06/03 04:45:55;;;;;;;;;;;;;;;21.79;37.49;95640.50;10309112;28;1987;-63
2023/06/03 04:50:55;;;;;;;;;;;;;;;21.78;37.21;95638.91;10303786;28;2352;-63
2023/06/03 04:55:55;;;;;;;;;;;;;;;21.75;37.39;95636.84;10306573;28;1959;-63
2023/06/03 05:01:16;;;;;;;;;;;;;;;21.75;37.49;95636.84;10303376;28;2460;-65
2023/06/03 05:06:17;;;;;;;;;;;;;;;21.76;37.29;95637.66;10305986;28;1996;-63
2023/06/03 05:11:17;;;;;;;;;;;;;;;21.74;37.51;95640.53;10299873;28;1974;-64
2023/06/03 05:16:17;;;;;;;;;;;;;;;21.73;37.52;95632.91;10308770;28;1938;-64
2023/06/03 05:21:19;;;;;;;;;;;;;;;21.73;37.34;95630.28;10303690;28;1881;-64
2023/06/03 05:26:19;;;;;;;;;;;;;;;21.72;37.30;95624.22;10308012;28;2014;-64
2023/06/03 05:31:19;;;;;;;;;;;;;;;21.72;37.27;95628.72;10306824;28;4298;-63
2023/06/03 05:36:20;;;;;;;;;;;;;;;21.71;37.35;95627.94;10308186;28;1922;-62
2023/06/03 05:41:20;;;;;;;;;;;;;;;21.70;37.74;95626.34;10306060;28;1894;-63
2023/06/03 05:46:20;;;;;;;;;;;;;;;21.74;37.78;95631.88;10305541;28;1878;-65
2023/06/03 05:51:21;;;;;;;;;;;;;;;21.74;37.72;95626.59;10304804;28;1867;-63
2023/06/03 05:56:21;;;;;;;;;;;;;;;21.74;37.54;95631.88;10302824;28;2260;-64
2023/06/03 06:01:21;;;;;;;;;;;;;;;21.75;37.58;95620.22;10301767;28;1839;-64
2023/06/03 06:06:21;;;;;;;;;;;;;;;21.74;37.64;95619.44;10306239;28;1970;-64
2023/06/03 06:11:22;;;;;;;;;;;;;;;21.78;37.75;95623.06;10298513;28;2006;-64
2023/06/03 06:16:22;;;;;;;;;;;;;;;21.79;38.07;95631.78;10303633;28;2070;-63
2023/06/03 06:21:22;;;;;;;;;;;;;;;21.82;37.86;95633.91;10299802;28;1906;-63
2023/06/03 06:26:23;;;;;;;;;;;;;;;21.81;38.11;95632.28;10304473;28;1859;-63
2023/06/03 06:31:23;;;;;;;;;;;;;;;21.84;38.29;95621.22;10298874;28;1883;-63
2023/06/03 06:36:32;;;;;;;;;;;;;;;21.84;38.28;95621.22;10304519;28;1915;-63
2023/06/03 06:41:34;;;;;;;;;;;;;;;21.84;38.30;95632.53;10301075;28;1846;-63
2023/06/03 06:46:35;;;;;;;;;;;;;;;21.86;38.50;95627.00;10302981;28;1923;-64
2023/06/03 06:51:36;;;;;;;;;;;;;;;21.86;38.51;95637.53;10305499;28;1910;-60
2023/06/03 06:56:36;;;;;;;;;;;;;;;21.91;38.46;95628.78;10287731;28;1879;-62
2023/06/03 07:01:37;;;;;;;;;;;;;;;21.93;38.64;95632.69;10280713;28;1901;-62
2023/06/03 07:06:37;;;;;;;;;;;;;;;21.94;38.59;95630.84;10301951;28;1913;-63
2023/06/03 07:11:40;;;;;;;;;;;;;;;21.92;38.47;95643.53;10293625;28;1989;-62
2023/06/03 07:16:40;;;;;;;;;;;;;;;21.91;38.54;95641.97;10292832;28;1973;-61
2023/06/03 07:21:41;;;;;;;;;;;;;;;21.90;38.80;95643.81;10296456;28;1839;-63
2023/06/03 07:26:41;;;;;;;;;;;;;;;21.94;38.66;95650.09;10300311;28;4343;-63
2023/06/03 07:31:41;;;;;;;;;;;;;;;21.95;39.01;95654.28;10303189;28;1906;-62
2023/06/03 07:36:42;;;;;;;;;;;;;;;21.97;38.95;95654.03;10295971;28;1974;-62
2023/06/03 07:41:45;;;;;;;;;;;;;;;21.96;39.07;95653.25;10303950;28;1831;-61
2023/06/03 07:46:54;;;;;;;;;;;;;;;21.98;38.91;95656.38;10307119;28;2188;-60
2023/06/03 07:51:54;;;;;;;;;;;;;;;22.00;39.32;95664.78;10305542;28;2020;-61
2023/06/03 07:56:55;;;;;;;;;;;;;;;21.98;39.46;95663.50;10310278;28;2120;-62
2023/06/03 08:01:57;;;;;;;;;;;;;;;21.97;39.25;95668.00;10304655;28;2088;-61
2023/06/03 08:07:00;;;;;;;;;;;;;;;21.95;39.15;95662.22;10303170;28;1922;-61
2023/06/03 08:12:01;;;;;;;;;;;;;;;21.95;39.34;95680.69;10287810;28;2007;-59
2023/06/03 08:17:07;;;;;;;;;;;;;;;21.92;39.28;95662.78;10304628;28;1879;-58
2023/06/03 08:22:14;;;;;;;;;;;;;;;21.93;39.10;95661.72;10313923;28;1925;-61
2023/06/03 08:27:15;;;;;;;;;;;;;;;21.94;39.51;95673.84;10301685;28;4346;-59
2023/06/03 08:32:15;;;;;;;;;;;;;;;21.95;39.39;95664.84;10307466;28;1811;-59
2023/06/03 08:37:15;;;;;;;;;;;;;;;21.92;39.30;95667.28;10304874;28;2001;-59
2023/06/03 08:42:18;;;;;;;;;;;;;;;21.92;39.22;95656.72;10305162;28;1902;-59
2023/06/03 08:47:45;;;;;;;;;;;;;;;21.92;39.28;95665.44;10307378;28;2537;-59
2023/06/03 08:52:45;;;;;;;;;;;;;;;21.92;39.37;95673.34;10289872;28;1925;-59
2023/06/03 08:57:49;;;;;;;;;;;;;;;21.90;39.60;95675.50;10301798;28;1954;-59
2023/06/03 09:02:50;;;;;;;;;;;;;;;21.91;39.50;95669.13;10307097;28;2069;-60
2023/06/03 09:07:51;;;;;;;;;;;;;;;21.92;39.26;95675.19;10303691;28;1953;-59
2023/06/03 09:12:54;;;;;;;;;;;;;;;21.91;39.40;95661.22;10291521;28;1768;-60
2023/06/03 09:17:55;;;;;;;;;;;;;;;21.93;39.46;95674.16;10287060;28;2058;-59
2023/06/03 09:22:55;;;;;;;;;;;;;;;21.92;39.43;95662.78;10306184;28;1878;-59
2023/06/03 09:27:55;;;;;;;;;;;;;;;21.92;39.45;95662.00;10306306;28;4288;-59
2023/06/03 09:32:56;;;;;;;;;;;;;;;21.91;39.42;95674.41;10304251;28;1892;-59
2023/06/03 09:37:56;;;;;;;;;;;;;;;21.92;39.52;95664.63;10305811;28;1958;-59
2023/06/03 09:42:57;;;;;;;;;;;;;;;21.92;39.44;95665.44;10308369;28;2283;-60
2023/06/03 09:47:58;;;;;;;;;;;;;;;21.95;39.62;95674.66;10300094;28;2078;-59
2023/06/03 09:52:58;;;;;;;;;;;;;;;21.96;39.59;95670.91;10304798;28;1851;-59
2023/06/03 09:58:09;;;;;;;;;;;;;;;21.97;39.52;95669.88;10305542;28;1991;-59
2023/06/03 10:03:10;;;;;;;;;;;;;;;21.95;39.41;95670.13;10294877;28;2090;-60
2023/06/03 10:08:10;;;;;;;;;;;;;;;21.94;39.67;95673.84;10301657;28;1906;-59
2023/06/03 10:13:21;;;;;;;;;;;;;;;21.93;39.54;95672.25;10304606;28;1974;-60
2023/06/03 10:18:34;;;;;;;;;;;;;;;21.94;39.49;95663.28;10298817;28;1993;-59
2023/06/03 10:23:41;;;;;;;;;;;;;;;21.96;39.73;95660.38;10304189;28;1862;-59
2023/06/03 10:28:41;;;;;;;;;;;;;;;21.98;39.50;95659.03;10302029;28;4256;-59
2023/06/03 10:33:41;;;;;;;;;;;;;;;22.00;39.46;95656.88;10288277;28;1925;-59
2023/06/03 10:38:42;;;;;;;;;;;;;;;22.02;39.66;95665.28;10297746;28;9127;-59
2023/06/03 10:43:43;;;;;;;;;;;;;;;22.02;39.41;95654.75;10314191;28;8704;-59
2023/06/03 10:48:44;;;;;;;;;;;;;;;22.06;39.46;95650.47;10301312;28;1961;-59
2023/06/03 10:54:03;;;;;;;;;;;;;;;22.06;39.67;95647.81;10296015;28;8347;-59
2023/06/03 10:59:03;;;;;;;;;;;;;;;22.09;39.48;95649.88;10301061;28;1951;-59
2023/06/03 11:04:07;;;;;;;;;;;;;;;22.11;39.50;95647.75;10298332;28;1882;-59
2023/06/03 11:09:12;;;;;;;;;;;;;;;22.17;39.85;95651.91;10301633;28;5283;-62
2023/06/03 11:14:41;;;;;;;;;;;;;;;22.21;39.88;95652.91;10296151;28;1921;-61
2023/06/03 11:19:44;;;;;;;;;;;;;;;22.23;40.07;95656.03;10308408;28;1997;-61
2023/06/03 11:24:44;;;;;;;;;;;;;;;22.24;39.74;95641.75;10309656;28;1863;-62
2023/06/03 11:29:48;;;;;;;;;;;;;;;22.25;39.57;95645.19;10310500;28;1893;-61
2023/06/03 11:34:49;;;;;;;;;;;;;;;22.24;39.52;95640.97;10296360;28;1915;-59
2023/06/03 11:39:58;;;;;;;;;;;;;;;22.27;39.70;95629.84;10304178;28;2160;-61
2023/06/03 11:45:38;;;;;;;;;;;;;;;22.26;39.60;95634.31;10304724;28;6929;-62
2023/06/03 11:50:53;;;;;;;;;;;;;;;22.24;39.55;95631.19;10306516;28;1961;-62
2023/06/03 11:56:00;;;;;;;;;;;;;;;22.27;39.45;95630.63;10304334;28;2026;-62
2023/06/03 12:01:07;;;;;;;;;;;;;;;22.30;39.23;95623.97;10308155;28;1855;-62
2023/06/03 12:06:08;;;;;;;;;;;;;;;22.29;39.13;95617.91;10306835;28;1898;-62
2023/06/03 12:11:08;;;;;;;;;;;;;;;22.30;39.21;95616.84;10307293;28;1870;-62
2023/06/03 12:16:09;;;;;;;;;;;;;;;22.29;39.38;95620.56;10310810;28;1977;-62
2023/06/03 12:21:19;;;;;;;;;;;;;;;22.30;38.96;95619.47;10311716;28;1898;-62
2023/06/03 12:26:20;;;;;;;;;;;;;;;22.29;39.09;95612.63;10319647;28;1993;-60
2023/06/03 12:31:20;;;;;;;;;;;;;;;22.28;39.03;95611.06;10299576;28;1870;-61
2023/06/03 12:36:22;;;;;;;;;;;;;;;22.30;38.84;95608.13;10309558;28;1918;-60
2023/06/03 12:41:22;;;;;;;;;;;;;;;22.31;38.79;95612.34;10286872;28;2233;-61
2023/06/03 12:46:23;;;;;;;;;;;;;;;22.32;38.81;95603.34;10304952;28;1944;-61
2023/06/03 12:51:24;;;;;;;;;;;;;;;22.33;38.74;95612.84;10310177;28;2239;-61
2023/06/03 12:56:27;;;;;;;;;;;;;;;22.33;38.75;95608.34;10304626;28;1891;-61
2023/06/03 13:01:28;;;;;;;;;;;;;;;22.33;38.48;95615.47;10303091;28;1931;-61
2023/06/03 13:06:28;;;;;;;;;;;;;;;22.33;38.59;95603.06;10305181;28;1890;-60
2023/06/03 13:11:28;;;;;;;;;;;;;;;22.36;38.44;95599.84;10303744;28;1984;-60
2023/06/03 13:16:28;;;;;;;;;;;;;;;22.39;38.47;95601.91;10308076;28;1950;-59
2023/06/03 13:21:29;;;;;;;;;;;;;;;22.41;38.35;95599.78;10296816;28;1884;-60
2023/06/03 13:26:29;;;;;;;;;;;;;;;22.38;38.59;95595.06;10305408;28;1935;-58
2023/06/03 13:31:29;;;;;;;;;;;;;;;22.40;38.48;95603.47;10309511;28;2026;-60
2023/06/03 13:36:30;;;;;;;;;;;;;;;22.40;38.01;95598.19;10304945;28;2136;-60
2023/06/03 13:41:30;;;;;;;;;;;;;;;22.42;38.32;95590.75;10310656;28;1867;-59
2023/06/03 13:46:30;;;;;;;;;;;;;;;22.41;38.37;95589.22;10306184;28;5074;-60
2023/06/03 13:51:30;;;;;;;;;;;;;;;22.47;37.38;95579.34;10301420;28;1881;-60
2023/06/03 13:56:31;;;;;;;;;;;;;;;22.46;38.10;95583.06;10301005;28;1987;-60
2023/06/03 14:01:31;;;;;;;;;;;;;;;22.45;37.84;95578.84;10299653;28;1874;-60
2023/06/03 14:06:31;;;;;;;;;;;;;;;22.46;37.54;95567.22;10287719;28;1857;-60
2023/06/03 14:11:32;;;;;;;;;;;;;;;22.46;38.04;95572.50;10306098;28;1874;-64
2023/06/03 14:16:32;;;;;;;;;;;;;;;22.48;37.98;95562.44;10308380;28;2042;-59
2023/06/03 14:21:32;;;;;;;;;;;;;;;22.48;38.00;95557.91;10298791;28;1898;-59
2023/06/03 14:26:35;;;;;;;;;;;;;;;22.49;38.49;95572.69;10305078;28;1934;-59
2023/06/03 14:31:35;;;;;;;;;;;;;;;22.50;38.28;95550.47;10307758;28;1909;-59
2023/06/03 14:36:38;;;;;;;;;;;;;;;22.50;38.34;95555.75;10303393;28;2359;-59
2023/06/03 14:41:38;;;;;;;;;;;;;;;22.51;38.34;95556.56;10301706;28;1966;-59
2023/06/03 14:46:38;;;;;;;;;;;;;;;22.51;38.23;95553.91;10303440;28;4866;-60
2023/06/03 14:51:38;;;;;;;;;;;;;;;22.50;38.31;95561.03;10304198;28;1960;-59
2023/06/03 14:56:39;;;;;;;;;;;;;;;22.52;38.37;95572.09;10302012;28;1894;-59
2023/06/03 15:01:39;;;;;;;;;;;;;;;22.51;38.35;95570.53;10304965;28;1918;-59
2023/06/03 15:06:40;;;;;;;;;;;;;;;22.51;38.18;95557.34;10299224;28;1914;-60
2023/06/03 15:11:40;;;;;;;;;;;;;;;22.51;38.30;95559.19;10305532;28;2329;-58
2023/06/03 15:16:41;;;;;;;;;;;;;;;22.49;38.42;95554.22;10305786;28;1975;-59
2023/06/03 15:21:41;;;;;;;;;;;;;;;22.51;38.15;95557.34;10302628;28;1882;-59
2023/06/03 15:26:42;;;;;;;;;;;;;;;22.50;38.36;95555.75;10303531;28;2141;-59
2023/06/03 15:31:42;;;;;;;;;;;;;;;22.51;38.08;95545.97;10284464;28;2122;-60
2023/06/03 15:36:42;;;;;;;;;;;;;;;22.52;38.08;95555.50;10292831;28;1955;-59
2023/06/03 15:41:46;;;;;;;;;;;;;;;22.52;37.92;95555.50;10303210;28;1894;-59
2023/06/03 15:46:46;;;;;;;;;;;;;;;22.52;38.00;95550.97;10305263;28;5175;-59
2023/06/03 15:51:46;;;;;;;;;;;;;;;22.52;38.06;95553.59;10302389;28;2006;-58
2023/06/03 15:56:47;;;;;;;;;;;;;;;22.52;38.16;95550.97;10299410;28;2006;-60
2023/06/03 16:01:47;;;;;;;;;;;;;;;22.52;38.22;95548.31;10304290;28;2129;-59
2023/06/03 16:06:47;;;;;;;;;;;;;;;22.53;37.98;95536.69;10303892;28;1983;-60
2023/06/03 16:11:48;;;;;;;;;;;;;;;22.54;38.27;95550.69;10307307;28;1898;-59
2023/06/03 16:16:48;;;;;;;;;;;;;;;22.54;38.21;95550.69;10308725;28;2112;-59
2023/06/03 16:21:48;;;;;;;;;;;;;;;22.54;37.94;95551.50;10307019;28;1955;-59
2023/06/03 16:26:48;;;;;;;;;;;;;;;22.53;37.93;95542.00;10307339;28;2285;-58
2023/06/03 16:31:49;;;;;;;;;;;;;;;22.53;38.23;95549.91;10311874;28;1848;-60
2023/06/03 16:36:49;;;;;;;;;;;;;;;22.53;38.02;95551.75;10305291;28;1910;-59
2023/06/03 16:41:49;;;;;;;;;;;;;;;22.53;37.99;95559.69;10304862;28;1909;-59
2023/06/03 16:46:50;;;;;;;;;;;;;;;22.52;38.06;95563.41;10309155;28;5332;-62
2023/06/03 16:51:50;;;;;;;;;;;;;;;22.53;38.19;95565.75;10306691;28;1875;-59
2023/06/03 16:56:50;;;;;;;;;;;;;;;22.53;38.22;95557.03;10306669;28;2097;-61
2023/06/03 17:01:50;;;;;;;;;;;;;;;22.53;38.25;95563.13;10307842;28;1886;-62
2023/06/03 17:06:51;;;;;;;;;;;;;;;22.53;37.96;95568.41;10302293;28;1877;-61
2023/06/03 17:11:51;;;;;;;;;;;;;;;22.52;38.09;95572.09;10312545;28;1843;-61
2023/06/03 17:16:51;;;;;;;;;;;;;;;22.53;38.09;95578.19;10306715;28;1894;-61
2023/06/03 17:21:51;;;;;;;;;;;;;;;22.52;37.80;95569.47;10305938;28;2309;-61
2023/06/03 17:26:53;;;;;;;;;;;;;;;22.52;37.94;95576.63;10308654;28;1843;-61
2023/06/03 17:31:53;;;;;;;;;;;;;;;22.52;37.97;95579.25;10304522;28;1863;-61
2023/06/03 17:36:53;;;;;;;;;;;;;;;22.53;37.95;95578.97;10307365;28;1910;-61
2023/06/03 17:41:53;;;;;;;;;;;;;;;22.52;37.85;95581.91;10303293;28;1862;-61
2023/06/03 17:46:54;;;;;;;;;;;;;;;22.52;37.99;95595.88;10303840;28;5032;-61
2023/06/03 17:51:54;;;;;;;;;;;;;;;22.53;37.78;95594.03;10301727;28;2059;-61
2023/06/03 17:56:56;;;;;;;;;;;;;;;22.54;37.90;95599.03;10304922;28;2050;-61
2023/06/03 18:01:56;;;;;;;;;;;;;;;22.53;37.71;95589.53;10301854;28;1896;-61
2023/06/03 18:06:56;;;;;;;;;;;;;;;22.52;37.97;95595.13;10307979;28;1949;-59
2023/06/03 18:11:56;;;;;;;;;;;;;;;22.52;37.67;95584.56;10303687;28;2006;-61
2023/06/03 18:16:57;;;;;;;;;;;;;;;22.53;37.56;95601.94;10307765;28;1887;-61
2023/06/03 18:21:57;;;;;;;;;;;;;;;22.51;37.72;95590.88;10298801;28;2367;-61
2023/06/03 18:26:57;;;;;;;;;;;;;;;22.52;37.65;95589.84;10303073;28;2011;-62
2023/06/03 18:31:58;;;;;;;;;;;;;;;22.52;37.99;95595.88;10289893;28;1970;-61
2023/06/03 18:36:58;;;;;;;;;;;;;;;22.51;37.69;95591.69;10299501;28;2058;-61
2023/06/03 18:41:58;;;;;;;;;;;;;;;22.51;37.96;95599.59;10290928;28;2004;-61
2023/06/03 18:46:58;;;;;;;;;;;;;;;22.53;37.98;95602.75;10306060;28;5073;-61
2023/06/03 18:51:59;;;;;;;;;;;;;;;22.51;37.69;95599.59;10299397;28;1902;-61
2023/06/03 18:56:59;;;;;;;;;;;;;;;22.51;37.71;95604.88;10302541;28;1942;-62
2023/06/03 19:02:00;;;;;;;;;;;;;;;22.51;38.09;95604.88;10303438;28;1885;-60
2023/06/03 19:07:00;;;;;;;;;;;;;;;22.51;37.99;95604.88;10305651;28;1997;-61
2023/06/03 19:12:01;;;;;;;;;;;;;;;22.52;37.94;95609.09;10305900;28;1896;-60
2023/06/03 19:17:01;;;;;;;;;;;;;;;22.52;37.95;95617.00;10302187;28;2304;-61
2023/06/03 19:22:01;;;;;;;;;;;;;;;22.51;38.04;95620.75;10298282;28;1878;-61
2023/06/03 19:27:01;;;;;;;;;;;;;;;22.53;38.14;95629.16;10302870;28;1959;-59
2023/06/03 19:32:02;;;;;;;;;;;;;;;22.53;38.14;95628.38;10304846;28;1828;-61
2023/06/03 19:37:06;;;;;;;;;;;;;;;22.53;38.15;95642.38;10303447;28;1944;-61
2023/06/03 19:42:06;;;;;;;;;;;;;;;22.52;38.10;95635.50;10308910;28;1928;-61
2023/06/03 19:47:06;;;;;;;;;;;;;;;22.53;38.20;95639.72;10302884;28;5271;-61
2023/06/03 19:52:07;;;;;;;;;;;;;;;22.53;38.06;95645.00;10309475;28;1900;-61
2023/06/03 19:57:07;;;;;;;;;;;;;;;22.53;38.37;95650.28;10308926;28;1958;-61
2023/06/03 20:02:08;;;;;;;;;;;;;;;22.53;38.37;95655.56;10309368;28;1935;-61
2023/06/03 20:07:10;;;;;;;;;;;;;;;22.55;38.30;95657.91;10310630;28;2000;-61
2023/06/03 20:12:12;;;;;;;;;;;;;;;22.54;38.33;95667.72;10312418;28;2387;-61
2023/06/03 20:17:12;;;;;;;;;;;;;;;22.54;38.16;95657.16;10310209;28;1891;-61
2023/06/03 20:22:12;;;;;;;;;;;;;;;22.54;38.14;95661.66;10307971;28;1859;-61
2023/06/03 20:27:13;;;;;;;;;;;;;;;22.56;38.54;95660.28;10310019;28;2027;-61
2023/06/03 20:32:13;;;;;;;;;;;;;;;22.56;38.25;95667.44;10309899;28;1867;-60
2023/06/03 20:37:13;;;;;;;;;;;;;;;22.56;38.21;95662.94;10307220;28;1907;-61
2023/06/03 20:42:14;;;;;;;;;;;;;;;22.55;38.58;95669.28;10306506;28;1903;-61
2023/06/03 20:47:14;;;;;;;;;;;;;;;22.56;38.20;95670.88;10309210;28;4931;-61
2023/06/03 20:52:14;;;;;;;;;;;;;;;22.57;38.45;95671.63;10306167;28;1905;-61
2023/06/03 20:57:17;;;;;;;;;;;;;;;22.57;38.24;95671.63;10307850;28;2113;-61
2023/06/03 21:02:17;;;;;;;;;;;;;;;22.59;38.63;95674.78;10311036;28;1927;-61
2023/06/03 21:07:17;;;;;;;;;;;;;;;22.57;38.47;95664.50;10308958;28;2145;-61
2023/06/03 21:12:18;;;;;;;;;;;;;;;22.56;38.52;95668.22;10304322;28;1879;-61
2023/06/03 21:17:20;;;;;;;;;;;;;;;22.56;38.73;95668.22;10304728;28;1926;-61
2023/06/03 21:22:20;;;;;;;;;;;;;;;22.56;38.53;95670.88;10304135;28;2047;-61
2023/06/03 21:27:20;;;;;;;;;;;;;;;22.56;38.38;95665.56;10306183;28;1913;-61
2023/06/03 21:32:20;;;;;;;;;;;;;;;22.56;38.70;95668.22;10301717;28;1956;-61
2023/06/03 21:37:21;;;;;;;;;;;;;;;22.56;38.71;95672.72;10305861;28;1902;-61
2023/06/03 21:42:21;;;;;;;;;;;;;;;22.53;38.54;95674.06;10304013;28;1874;-61
2023/06/03 21:47:21;;;;;;;;;;;;;;;22.51;38.21;95678.84;10307386;28;5141;-61
2023/06/03 21:52:22;;;;;;;;;;;;;;;22.51;38.49;95678.06;10303230;28;1859;-61
2023/06/03 21:57:22;;;;;;;;;;;;;;;22.49;38.52;95669.63;10308054;28;1973;-61
2023/06/03 22:02:22;;;;;;;;;;;;;;;22.49;38.12;95669.63;10300944;28;2914;-60
2023/06/03 22:07:23;;;;;;;;;;;;;;;22.46;38.13;95671.00;10306048;28;1891;-61
2023/06/03 22:12:23;;;;;;;;;;;;;;;22.44;38.14;95670.50;10303686;28;1942;-61
2023/06/03 22:17:23;;;;;;;;;;;;;;;22.44;37.78;95673.13;10303651;28;1973;-61
2023/06/03 22:22:23;;;;;;;;;;;;;;;22.44;37.92;95675.00;10301111;28;1938;-61
2023/06/03 22:27:24;;;;;;;;;;;;;;;22.44;37.71;95675.00;10303601;28;2105;-61
2023/06/03 22:32:24;;;;;;;;;;;;;;;22.41;37.98;95672.94;10288371;28;1907;-62
2023/06/03 22:37:24;;;;;;;;;;;;;;;22.41;37.98;95672.94;10291001;28;1902;-61
2023/06/03 22:42:25;;;;;;;;;;;;;;;22.41;37.94;95672.94;10302147;28;1890;-61
2023/06/03 22:47:25;;;;;;;;;;;;;;;22.41;38.00;95668.44;10296687;28;5102;-61
2023/06/03 22:52:25;;;;;;;;;;;;;;;22.43;38.03;95666.28;10295060;28;1887;-62
2023/06/03 22:57:26;;;;;;;;;;;;;;;22.44;38.11;95662.56;10300380;28;1910;-62
2023/06/03 23:02:26;;;;;;;;;;;;;;;22.45;38.29;95661.50;10303403;28;2230;-62
2023/06/03 23:07:26;;;;;;;;;;;;;;;22.44;38.25;95662.56;10301934;28;1950;-62
2023/06/03 23:12:27;;;;;;;;;;;;;;;22.42;38.07;95658.66;10308663;28;1964;-61
2023/06/03 23:17:27;;;;;;;;;;;;;;;22.40;38.08;95656.28;10312260;28;1903;-62
2023/06/03 23:22:27;;;;;;;;;;;;;;;22.39;38.00;95665.31;10308657;28;2062;-62
2023/06/03 23:27:28;;;;;;;;;;;;;;;22.39;38.15;95660.03;10310254;28;1862;-62
2023/06/03 23:32:28;;;;;;;;;;;;;;;22.40;38.57;95652.88;10314623;28;1842;-61
2023/06/03 23:37:30;;;;;;;;;;;;;;;22.39;38.48;95652.09;10312461;28;2178;-62
2023/06/03 23:42:30;;;;;;;;;;;;;;;22.38;38.50;95639.19;10307695;28;1878;-62
2023/06/03 23:47:31;;;;;;;;;;;;;;;22.38;38.12;95642.59;10308105;28;5069;-62
2023/06/03 23:52:31;;;;;;;;;;;;;;;22.38;38.15;95639.94;10303346;28;1933;-62
2023/06/03 23:57:31;;;;;;;;;;;;;;;22.36;38.25;95628.88;10306114;28;1906;-62
